sensor_id;sensor_type;location;lat;lon;timestamp;P1;durP1;ratioP1;P2;durP2;ratioP2
40675;SDS011;26359;48.750;9.314;2024-03-25T00:00:11;18.35;;;17.17;;
40675;SDS011;26359;48.750;9.314;2024-03-25T00:02:38;6.85;;;5.93;;
40675;SDS011;26359;48.750;9.314;2024-03-25T00:05:07;18.80;;;17.73;;
40675;SDS011;26359;48.750;9.314;2024-03-25T00:07:37;17.58;;;16.27;;
40675;SDS011;26359;48.750;9.314;2024-03-25T00:10:03;11.55;;;10.82;;
40675;SDS011;26359;48.750;9.314;2024-03-25T00:12:31;13.95;;;12.98;;
40675;SDS011;26359;48.750;9.314;2024-03-25T00:14:56;11.50;;;10.70;;
40675;SDS011;26359;48.750;9.314;2024-03-25T00:17:25;8.40;;;7.70;;
40675;SDS011;26359;48.750;9.314;2024-03-25T00:19:51;13.52;;;12.55;;
40675;SDS011;26359;48.750;9.314;2024-03-25T00:22:17;12.18;;;11.23;;
40675;SDS011;26359;48.750;9.314;2024-03-25T00:24:44;12.05;;;11.10;;
40675;SDS011;26359;48.750;9.314;2024-03-25T00:27:10;11.73;;;10.93;;
40675;SDS011;26359;48.750;9.314;2024-03-25T00:29:35;13.55;;;12.55;;
40675;SDS011;26359;48.750;9.314;2024-03-25T00:32:01;23.67;;;22.20;;
40675;SDS011;26359;48.750;9.314;2024-03-25T00:34:27;11.88;;;10.95;;
40675;SDS011;26359;48.750;9.314;2024-03-25T00:36:52;30.70;;;28.83;;
40675;SDS011;26359;48.750;9.314;2024-03-25T00:39:18;12.38;;;11.43;;
40675;SDS011;26359;48.750;9.314;2024-03-25T00:41:44;11.95;;;11.05;;
40675;SDS011;26359;48.750;9.314;2024-03-25T00:44:09;16.92;;;15.63;;
40675;SDS011;26359;48.750;9.314;2024-03-25T00:46:35;12.85;;;11.75;;
40675;SDS011;26359;48.750;9.314;2024-03-25T00:49:01;15.60;;;14.15;;
40675;SDS011;26359;48.750;9.314;2024-03-25T00:51:26;14.15;;;13.15;;
40675;SDS011;26359;48.750;9.314;2024-03-25T00:53:52;13.73;;;12.50;;
40675;SDS011;26359;48.750;9.314;2024-03-25T00:56:17;13.82;;;12.77;;
40675;SDS011;26359;48.750;9.314;2024-03-25T00:58:43;17.08;;;15.88;;
40675;SDS011;26359;48.750;9.314;2024-03-25T01:01:10;13.73;;;12.63;;
40675;SDS011;26359;48.750;9.314;2024-03-25T01:03:36;15.55;;;14.25;;
40675;SDS011;26359;48.750;9.314;2024-03-25T01:06:02;16.25;;;15.00;;
40675;SDS011;26359;48.750;9.314;2024-03-25T01:08:29;13.43;;;12.25;;
40675;SDS011;26359;48.750;9.314;2024-03-25T01:10:54;8.98;;;8.18;;
40675;SDS011;26359;48.750;9.314;2024-03-25T01:13:20;10.77;;;9.60;;
40675;SDS011;26359;48.750;9.314;2024-03-25T01:15:46;8.00;;;7.28;;
40675;SDS011;26359;48.750;9.314;2024-03-25T01:18:12;8.90;;;7.57;;
40675;SDS011;26359;48.750;9.314;2024-03-25T01:20:38;10.10;;;6.15;;
40675;SDS011;26359;48.750;9.314;2024-03-25T01:23:03;9.57;;;8.80;;
40675;SDS011;26359;48.750;9.314;2024-03-25T01:25:30;8.02;;;6.78;;
40675;SDS011;26359;48.750;9.314;2024-03-25T01:27:55;8.63;;;7.78;;
40675;SDS011;26359;48.750;9.314;2024-03-25T01:30:21;10.73;;;9.82;;
40675;SDS011;26359;48.750;9.314;2024-03-25T01:32:47;12.00;;;10.82;;
40675;SDS011;26359;48.750;9.314;2024-03-25T01:35:13;12.85;;;11.60;;
40675;SDS011;26359;48.750;9.314;2024-03-25T01:37:40;9.85;;;8.90;;
40675;SDS011;26359;48.750;9.314;2024-03-25T01:40:06;9.05;;;8.15;;
40675;SDS011;26359;48.750;9.314;2024-03-25T01:42:32;9.25;;;8.45;;
40675;SDS011;26359;48.750;9.314;2024-03-25T01:44:58;14.77;;;13.50;;
40675;SDS011;26359;48.750;9.314;2024-03-25T01:47:23;8.82;;;8.10;;
40675;SDS011;26359;48.750;9.314;2024-03-25T01:49:49;15.32;;;14.10;;
40675;SDS011;26359;48.750;9.314;2024-03-25T01:52:18;9.20;;;7.68;;
40675;SDS011;26359;48.750;9.314;2024-03-25T01:54:45;8.43;;;7.63;;
40675;SDS011;26359;48.750;9.314;2024-03-25T01:57:11;16.38;;;15.10;;
40675;SDS011;26359;48.750;9.314;2024-03-25T01:59:37;13.52;;;12.27;;
40675;SDS011;26359;48.750;9.314;2024-03-25T02:02:04;16.27;;;14.73;;
40675;SDS011;26359;48.750;9.314;2024-03-25T02:04:30;19.10;;;17.08;;
40675;SDS011;26359;48.750;9.314;2024-03-25T02:06:56;10.55;;;7.72;;
40675;SDS011;26359;48.750;9.314;2024-03-25T02:09:23;12.75;;;11.48;;
40675;SDS011;26359;48.750;9.314;2024-03-25T02:11:49;14.23;;;13.18;;
40675;SDS011;26359;48.750;9.314;2024-03-25T02:14:16;8.30;;;6.93;;
40675;SDS011;26359;48.750;9.314;2024-03-25T02:16:41;10.52;;;9.43;;
40675;SDS011;26359;48.750;9.314;2024-03-25T02:19:07;16.45;;;14.95;;
40675;SDS011;26359;48.750;9.314;2024-03-25T02:21:34;17.23;;;15.80;;
40675;SDS011;26359;48.750;9.314;2024-03-25T02:24:00;22.30;;;20.50;;
40675;SDS011;26359;48.750;9.314;2024-03-25T02:26:29;20.95;;;19.35;;
40675;SDS011;26359;48.750;9.314;2024-03-25T02:28:55;18.08;;;16.23;;
40675;SDS011;26359;48.750;9.314;2024-03-25T02:31:20;26.17;;;24.30;;
40675;SDS011;26359;48.750;9.314;2024-03-25T02:33:46;22.85;;;21.10;;
40675;SDS011;26359;48.750;9.314;2024-03-25T02:36:12;23.60;;;21.95;;
40675;SDS011;26359;48.750;9.314;2024-03-25T02:38:37;21.73;;;20.30;;
40675;SDS011;26359;48.750;9.314;2024-03-25T02:41:03;21.00;;;19.55;;
40675;SDS011;26359;48.750;9.314;2024-03-25T02:43:29;15.18;;;14.00;;
40675;SDS011;26359;48.750;9.314;2024-03-25T02:45:55;10.18;;;9.32;;
40675;SDS011;26359;48.750;9.314;2024-03-25T02:48:20;10.20;;;9.18;;
40675;SDS011;26359;48.750;9.314;2024-03-25T02:50:46;9.10;;;8.35;;
40675;SDS011;26359;48.750;9.314;2024-03-25T02:53:11;9.10;;;8.30;;
40675;SDS011;26359;48.750;9.314;2024-03-25T02:55:37;19.60;;;18.05;;
40675;SDS011;26359;48.750;9.314;2024-03-25T02:58:02;20.00;;;18.30;;
40675;SDS011;26359;48.750;9.314;2024-03-25T03:00:28;19.05;;;17.85;;
40675;SDS011;26359;48.750;9.314;2024-03-25T03:02:54;17.17;;;15.68;;
40675;SDS011;26359;48.750;9.314;2024-03-25T03:05:19;26.63;;;24.75;;
40675;SDS011;26359;48.750;9.314;2024-03-25T03:07:45;22.00;;;20.55;;
40675;SDS011;26359;48.750;9.314;2024-03-25T03:10:10;30.20;;;28.45;;
40675;SDS011;26359;48.750;9.314;2024-03-25T03:12:36;23.63;;;21.73;;
40675;SDS011;26359;48.750;9.314;2024-03-25T03:15:01;19.98;;;18.38;;
40675;SDS011;26359;48.750;9.314;2024-03-25T03:17:29;20.00;;;18.75;;
40675;SDS011;26359;48.750;9.314;2024-03-25T03:19:55;14.75;;;13.63;;
40675;SDS011;26359;48.750;9.314;2024-03-25T03:22:20;19.75;;;18.20;;
40675;SDS011;26359;48.750;9.314;2024-03-25T03:24:46;18.42;;;17.00;;
40675;SDS011;26359;48.750;9.314;2024-03-25T03:27:12;13.02;;;11.82;;
40675;SDS011;26359;48.750;9.314;2024-03-25T03:29:37;24.52;;;22.83;;
40675;SDS011;26359;48.750;9.314;2024-03-25T03:32:03;19.42;;;17.70;;
40675;SDS011;26359;48.750;9.314;2024-03-25T03:34:29;21.52;;;20.02;;
40675;SDS011;26359;48.750;9.314;2024-03-25T03:36:55;25.75;;;23.98;;
40675;SDS011;26359;48.750;9.314;2024-03-25T03:39:20;25.23;;;23.42;;
40675;SDS011;26359;48.750;9.314;2024-03-25T03:41:46;27.60;;;25.60;;
40675;SDS011;26359;48.750;9.314;2024-03-25T03:44:11;17.35;;;16.02;;
40675;SDS011;26359;48.750;9.314;2024-03-25T03:46:39;18.80;;;17.30;;
40675;SDS011;26359;48.750;9.314;2024-03-25T03:49:05;20.30;;;18.95;;
40675;SDS011;26359;48.750;9.314;2024-03-25T03:51:30;14.07;;;12.98;;
40675;SDS011;26359;48.750;9.314;2024-03-25T03:53:56;16.48;;;15.15;;
40675;SDS011;26359;48.750;9.314;2024-03-25T03:56:22;10.50;;;9.32;;
40675;SDS011;26359;48.750;9.314;2024-03-25T03:58:47;9.25;;;7.97;;
40675;SDS011;26359;48.750;9.314;2024-03-25T04:01:16;8.15;;;7.43;;
40675;SDS011;26359;48.750;9.314;2024-03-25T04:03:43;18.80;;;17.05;;
40675;SDS011;26359;48.750;9.314;2024-03-25T04:06:11;18.52;;;16.92;;
40675;SDS011;26359;48.750;9.314;2024-03-25T04:08:38;16.55;;;15.02;;
40675;SDS011;26359;48.750;9.314;2024-03-25T04:11:05;9.50;;;7.93;;
40675;SDS011;26359;48.750;9.314;2024-03-25T04:13:31;9.18;;;7.15;;
40675;SDS011;26359;48.750;9.314;2024-03-25T04:16:00;8.65;;;7.80;;
40675;SDS011;26359;48.750;9.314;2024-03-25T04:18:30;7.65;;;6.78;;
40675;SDS011;26359;48.750;9.314;2024-03-25T04:20:56;9.93;;;8.95;;
40675;SDS011;26359;48.750;9.314;2024-03-25T04:23:22;9.23;;;7.68;;
40675;SDS011;26359;48.750;9.314;2024-03-25T04:25:51;9.13;;;7.38;;
40675;SDS011;26359;48.750;9.314;2024-03-25T04:28:17;9.55;;;8.65;;
40675;SDS011;26359;48.750;9.314;2024-03-25T04:30:42;9.25;;;8.38;;
40675;SDS011;26359;48.750;9.314;2024-03-25T04:33:08;9.20;;;7.65;;
40675;SDS011;26359;48.750;9.314;2024-03-25T04:35:34;9.57;;;8.68;;
40675;SDS011;26359;48.750;9.314;2024-03-25T04:37:59;11.57;;;10.65;;
40675;SDS011;26359;48.750;9.314;2024-03-25T04:40:25;10.60;;;9.02;;
40675;SDS011;26359;48.750;9.314;2024-03-25T04:42:51;12.18;;;11.07;;
40675;SDS011;26359;48.750;9.314;2024-03-25T04:45:16;11.38;;;10.45;;
40675;SDS011;26359;48.750;9.314;2024-03-25T04:47:42;11.30;;;9.98;;
40675;SDS011;26359;48.750;9.314;2024-03-25T04:50:07;11.85;;;10.73;;
40675;SDS011;26359;48.750;9.314;2024-03-25T04:52:34;12.98;;;11.93;;
40675;SDS011;26359;48.750;9.314;2024-03-25T04:54:59;12.95;;;11.98;;
40675;SDS011;26359;48.750;9.314;2024-03-25T04:57:25;15.23;;;14.02;;
40675;SDS011;26359;48.750;9.314;2024-03-25T04:59:50;15.43;;;13.95;;
40675;SDS011;26359;48.750;9.314;2024-03-25T05:02:16;12.48;;;11.43;;
40675;SDS011;26359;48.750;9.314;2024-03-25T05:04:41;12.32;;;11.15;;
40675;SDS011;26359;48.750;9.314;2024-03-25T05:07:07;15.50;;;14.25;;
40675;SDS011;26359;48.750;9.314;2024-03-25T05:09:32;16.50;;;15.30;;
40675;SDS011;26359;48.750;9.314;2024-03-25T05:11:58;14.85;;;13.88;;
40675;SDS011;26359;48.750;9.314;2024-03-25T05:14:23;13.63;;;12.55;;
40675;SDS011;26359;48.750;9.314;2024-03-25T05:16:49;12.27;;;11.10;;
40675;SDS011;26359;48.750;9.314;2024-03-25T05:19:17;13.60;;;12.60;;
40675;SDS011;26359;48.750;9.314;2024-03-25T05:21:42;13.65;;;12.40;;
40675;SDS011;26359;48.750;9.314;2024-03-25T05:24:08;11.25;;;7.55;;
40675;SDS011;26359;48.750;9.314;2024-03-25T05:26:33;6.93;;;6.32;;
40675;SDS011;26359;48.750;9.314;2024-03-25T05:28:59;8.82;;;7.82;;
40675;SDS011;26359;48.750;9.314;2024-03-25T05:31:24;11.73;;;9.10;;
40675;SDS011;26359;48.750;9.314;2024-03-25T05:33:50;10.55;;;6.35;;
40675;SDS011;26359;48.750;9.314;2024-03-25T05:36:16;9.77;;;8.18;;
40675;SDS011;26359;48.750;9.314;2024-03-25T05:38:41;9.10;;;8.32;;
40675;SDS011;26359;48.750;9.314;2024-03-25T05:41:07;11.43;;;10.38;;
40675;SDS011;26359;48.750;9.314;2024-03-25T05:43:33;9.73;;;8.27;;
40675;SDS011;26359;48.750;9.314;2024-03-25T05:45:59;9.52;;;6.53;;
40675;SDS011;26359;48.750;9.314;2024-03-25T05:48:25;9.75;;;7.45;;
40675;SDS011;26359;48.750;9.314;2024-03-25T05:51:04;13.00;;;8.27;;
40675;SDS011;26359;48.750;9.314;2024-03-25T05:53:41;11.65;;;8.18;;
40675;SDS011;26359;48.750;9.314;2024-03-25T05:56:11;9.23;;;8.32;;
40675;SDS011;26359;48.750;9.314;2024-03-25T05:58:59;13.35;;;9.07;;
40675;SDS011;26359;48.750;9.314;2024-03-25T06:01:27;10.02;;;9.10;;
40675;SDS011;26359;48.750;9.314;2024-03-25T06:04:25;12.50;;;11.43;;
40675;SDS011;26359;48.750;9.314;2024-03-25T06:07:18;9.20;;;7.72;;
40675;SDS011;26359;48.750;9.314;2024-03-25T06:09:43;7.93;;;6.45;;
40675;SDS011;26359;48.750;9.314;2024-03-25T06:12:09;8.15;;;7.35;;
40675;SDS011;26359;48.750;9.314;2024-03-25T06:14:37;10.57;;;7.95;;
40675;SDS011;26359;48.750;9.314;2024-03-25T06:31:48;8.88;;;7.50;;
40675;SDS011;26359;48.750;9.314;2024-03-25T06:34:44;15.43;;;13.95;;
40675;SDS011;26359;48.750;9.314;2024-03-25T06:41:17;15.52;;;13.98;;
40675;SDS011;26359;48.750;9.314;2024-03-25T06:43:52;16.58;;;15.18;;
40675;SDS011;26359;48.750;9.314;2024-03-25T06:46:19;21.27;;;19.70;;
40675;SDS011;26359;48.750;9.314;2024-03-25T06:49:05;43.92;;;41.08;;
40675;SDS011;26359;48.750;9.314;2024-03-25T06:51:30;34.35;;;32.15;;
40675;SDS011;26359;48.750;9.314;2024-03-25T06:53:59;38.25;;;36.00;;
40675;SDS011;26359;48.750;9.314;2024-03-25T06:56:24;27.92;;;26.05;;
40675;SDS011;26359;48.750;9.314;2024-03-25T06:58:50;22.42;;;20.63;;
40675;SDS011;26359;48.750;9.314;2024-03-25T07:01:16;22.70;;;21.15;;
40675;SDS011;26359;48.750;9.314;2024-03-25T07:03:42;15.55;;;14.35;;
40675;SDS011;26359;48.750;9.314;2024-03-25T07:06:08;17.88;;;15.90;;
40675;SDS011;26359;48.750;9.314;2024-03-25T07:08:33;31.23;;;29.40;;
40675;SDS011;26359;48.750;9.314;2024-03-25T07:10:59;26.25;;;24.35;;
40675;SDS011;26359;48.750;9.314;2024-03-25T07:13:24;22.08;;;20.33;;
40675;SDS011;26359;48.750;9.314;2024-03-25T07:15:50;18.33;;;16.63;;
40675;SDS011;26359;48.750;9.314;2024-03-25T07:18:16;19.60;;;18.10;;
40675;SDS011;26359;48.750;9.314;2024-03-25T07:20:42;23.40;;;21.75;;
40675;SDS011;26359;48.750;9.314;2024-03-25T07:23:08;20.95;;;19.13;;
40675;SDS011;26359;48.750;9.314;2024-03-25T07:25:34;20.15;;;18.42;;
40675;SDS011;26359;48.750;9.314;2024-03-25T07:28:00;21.23;;;19.65;;
40675;SDS011;26359;48.750;9.314;2024-03-25T07:30:26;35.08;;;32.88;;
40675;SDS011;26359;48.750;9.314;2024-03-25T07:32:55;22.20;;;20.25;;
40675;SDS011;26359;48.750;9.314;2024-03-25T07:35:21;38.22;;;35.78;;
40675;SDS011;26359;48.750;9.314;2024-03-25T07:37:47;105.80;;;100.25;;
40675;SDS011;26359;48.750;9.314;2024-03-25T07:40:16;74.65;;;69.95;;
40675;SDS011;26359;48.750;9.314;2024-03-25T07:42:45;74.65;;;70.47;;
40675;SDS011;26359;48.750;9.314;2024-03-25T07:45:10;13.13;;;11.60;;
40675;SDS011;26359;48.750;9.314;2024-03-25T07:47:36;29.50;;;27.55;;
40675;SDS011;26359;48.750;9.314;2024-03-25T07:50:02;53.17;;;49.88;;
40675;SDS011;26359;48.750;9.314;2024-03-25T07:52:28;29.90;;;27.85;;
40675;SDS011;26359;48.750;9.314;2024-03-25T07:54:54;15.70;;;14.23;;
40675;SDS011;26359;48.750;9.314;2024-03-25T07:57:21;25.00;;;23.10;;
40675;SDS011;26359;48.750;9.314;2024-03-25T07:59:46;25.42;;;23.48;;
40675;SDS011;26359;48.750;9.314;2024-03-25T08:02:12;49.97;;;47.15;;
40675;SDS011;26359;48.750;9.314;2024-03-25T08:04:38;56.42;;;52.72;;
40675;SDS011;26359;48.750;9.314;2024-03-25T08:07:04;54.53;;;50.75;;
40675;SDS011;26359;48.750;9.314;2024-03-25T08:09:30;56.67;;;52.97;;
40675;SDS011;26359;48.750;9.314;2024-03-25T08:11:55;44.30;;;41.47;;
40675;SDS011;26359;48.750;9.314;2024-03-25T08:14:21;21.85;;;20.27;;
40675;SDS011;26359;48.750;9.314;2024-03-25T08:16:47;21.08;;;15.75;;
40675;SDS011;26359;48.750;9.314;2024-03-25T08:19:12;19.63;;;17.95;;
40675;SDS011;26359;48.750;9.314;2024-03-25T08:21:38;17.00;;;15.40;;
40675;SDS011;26359;48.750;9.314;2024-03-25T08:24:03;18.02;;;16.42;;
40675;SDS011;26359;48.750;9.314;2024-03-25T08:26:29;20.38;;;18.38;;
40675;SDS011;26359;48.750;9.314;2024-03-25T08:28:55;18.48;;;16.60;;
40675;SDS011;26359;48.750;9.314;2024-03-25T08:31:20;14.20;;;12.88;;
40675;SDS011;26359;48.750;9.314;2024-03-25T08:33:46;12.55;;;9.68;;
40675;SDS011;26359;48.750;9.314;2024-03-25T08:36:11;13.68;;;12.32;;
40675;SDS011;26359;48.750;9.314;2024-03-25T08:38:37;14.15;;;12.70;;
40675;SDS011;26359;48.750;9.314;2024-03-25T08:41:03;11.65;;;10.65;;
40675;SDS011;26359;48.750;9.314;2024-03-25T08:43:29;17.45;;;15.98;;
40675;SDS011;26359;48.750;9.314;2024-03-25T08:45:54;11.68;;;10.65;;
40675;SDS011;26359;48.750;9.314;2024-03-25T08:48:20;12.13;;;11.10;;
40675;SDS011;26359;48.750;9.314;2024-03-25T08:50:45;12.73;;;11.55;;
40675;SDS011;26359;48.750;9.314;2024-03-25T08:53:11;9.60;;;8.68;;
40675;SDS011;26359;48.750;9.314;2024-03-25T08:55:36;8.30;;;7.53;;
40675;SDS011;26359;48.750;9.314;2024-03-25T08:58:02;10.07;;;8.70;;
40675;SDS011;26359;48.750;9.314;2024-03-25T09:00:28;9.68;;;8.77;;
40675;SDS011;26359;48.750;9.314;2024-03-25T09:02:54;7.28;;;6.28;;
40675;SDS011;26359;48.750;9.314;2024-03-25T09:05:20;8.50;;;7.32;;
40675;SDS011;26359;48.750;9.314;2024-03-25T09:07:48;7.57;;;6.97;;
40675;SDS011;26359;48.750;9.314;2024-03-25T09:10:16;9.02;;;8.10;;
40675;SDS011;26359;48.750;9.314;2024-03-25T09:13:10;7.25;;;6.47;;
40675;SDS011;26359;48.750;9.314;2024-03-25T09:15:36;10.77;;;7.28;;
40675;SDS011;26359;48.750;9.314;2024-03-25T09:18:02;11.25;;;6.53;;
40675;SDS011;26359;48.750;9.314;2024-03-25T09:20:27;11.55;;;6.72;;
40675;SDS011;26359;48.750;9.314;2024-03-25T09:22:53;7.68;;;5.78;;
40675;SDS011;26359;48.750;9.314;2024-03-25T09:25:18;8.40;;;7.70;;
40675;SDS011;26359;48.750;9.314;2024-03-25T09:27:47;7.07;;;6.47;;
40675;SDS011;26359;48.750;9.314;2024-03-25T09:30:14;7.63;;;5.63;;
40675;SDS011;26359;48.750;9.314;2024-03-25T09:32:40;7.40;;;5.80;;
40675;SDS011;26359;48.750;9.314;2024-03-25T09:35:09;8.57;;;6.22;;
40675;SDS011;26359;48.750;9.314;2024-03-25T09:37:35;8.32;;;6.13;;
40675;SDS011;26359;48.750;9.314;2024-03-25T09:40:00;8.75;;;7.95;;
40675;SDS011;26359;48.750;9.314;2024-03-25T09:42:26;7.53;;;6.43;;
40675;SDS011;26359;48.750;9.314;2024-03-25T09:44:56;6.75;;;6.18;;
40675;SDS011;26359;48.750;9.314;2024-03-25T09:47:22;7.63;;;6.63;;
40675;SDS011;26359;48.750;9.314;2024-03-25T09:49:48;6.75;;;6.15;;
40675;SDS011;26359;48.750;9.314;2024-03-25T09:52:15;6.88;;;5.70;;
40675;SDS011;26359;48.750;9.314;2024-03-25T09:54:41;7.03;;;6.32;;
40675;SDS011;26359;48.750;9.314;2024-03-25T09:57:06;8.63;;;7.90;;
40675;SDS011;26359;48.750;9.314;2024-03-25T09:59:33;8.00;;;6.85;;
40675;SDS011;26359;48.750;9.314;2024-03-25T10:01:59;6.85;;;5.95;;
40675;SDS011;26359;48.750;9.314;2024-03-25T10:04:27;7.60;;;4.53;;
40675;SDS011;26359;48.750;9.314;2024-03-25T10:06:52;6.53;;;5.65;;
40675;SDS011;26359;48.750;9.314;2024-03-25T10:09:18;7.47;;;5.25;;
40675;SDS011;26359;48.750;9.314;2024-03-25T10:11:46;6.35;;;5.50;;
40675;SDS011;26359;48.750;9.314;2024-03-25T10:14:18;6.80;;;5.95;;
40675;SDS011;26359;48.750;9.314;2024-03-25T10:16:48;6.10;;;5.53;;
40675;SDS011;26359;48.750;9.314;2024-03-25T10:19:14;6.38;;;5.40;;
40675;SDS011;26359;48.750;9.314;2024-03-25T10:21:39;6.97;;;6.43;;
40675;SDS011;26359;48.750;9.314;2024-03-25T10:24:08;7.20;;;6.07;;
40675;SDS011;26359;48.750;9.314;2024-03-25T10:26:34;6.70;;;6.15;;
40675;SDS011;26359;48.750;9.314;2024-03-25T10:29:03;10.77;;;9.82;;
40675;SDS011;26359;48.750;9.314;2024-03-25T10:31:32;6.90;;;6.20;;
40675;SDS011;26359;48.750;9.314;2024-03-25T10:33:58;8.52;;;7.15;;
40675;SDS011;26359;48.750;9.314;2024-03-25T10:36:24;7.72;;;7.13;;
40675;SDS011;26359;48.750;9.314;2024-03-25T10:38:54;8.70;;;6.70;;
40675;SDS011;26359;48.750;9.314;2024-03-25T10:41:22;9.02;;;8.32;;
40675;SDS011;26359;48.750;9.314;2024-03-25T10:43:48;5.35;;;4.85;;
40675;SDS011;26359;48.750;9.314;2024-03-25T10:46:17;6.10;;;5.60;;
40675;SDS011;26359;48.750;9.314;2024-03-25T10:48:48;8.02;;;7.43;;
40675;SDS011;26359;48.750;9.314;2024-03-25T10:51:19;9.43;;;8.65;;
40675;SDS011;26359;48.750;9.314;2024-03-25T10:53:51;5.88;;;4.65;;
40675;SDS011;26359;48.750;9.314;2024-03-25T10:56:19;6.47;;;5.88;;
40675;SDS011;26359;48.750;9.314;2024-03-25T10:58:46;8.63;;;7.80;;
40675;SDS011;26359;48.750;9.314;2024-03-25T11:01:18;14.15;;;13.15;;
40675;SDS011;26359;48.750;9.314;2024-03-25T11:03:45;19.40;;;18.10;;
40675;SDS011;26359;48.750;9.314;2024-03-25T11:06:12;13.88;;;12.88;;
40675;SDS011;26359;48.750;9.314;2024-03-25T11:08:39;11.43;;;10.45;;
40675;SDS011;26359;48.750;9.314;2024-03-25T11:11:11;10.82;;;9.90;;
40675;SDS011;26359;48.750;9.314;2024-03-25T11:13:37;10.25;;;9.55;;
40675;SDS011;26359;48.750;9.314;2024-03-25T11:16:03;11.80;;;11.00;;
40675;SDS011;26359;48.750;9.314;2024-03-25T11:18:29;12.20;;;11.38;;
40675;SDS011;26359;48.750;9.314;2024-03-25T11:21:02;10.07;;;9.13;;
40675;SDS011;26359;48.750;9.314;2024-03-25T11:23:41;12.93;;;12.02;;
40675;SDS011;26359;48.750;9.314;2024-03-25T11:26:16;9.20;;;8.48;;
40675;SDS011;26359;48.750;9.314;2024-03-25T11:28:44;11.13;;;10.30;;
40675;SDS011;26359;48.750;9.314;2024-03-25T11:31:10;10.13;;;9.23;;
40675;SDS011;26359;48.750;9.314;2024-03-25T11:33:37;7.05;;;6.45;;
40675;SDS011;26359;48.750;9.314;2024-03-25T11:36:04;6.38;;;5.78;;
40675;SDS011;26359;48.750;9.314;2024-03-25T11:38:30;7.32;;;6.63;;
40675;SDS011;26359;48.750;9.314;2024-03-25T11:40:55;7.40;;;6.82;;
40675;SDS011;26359;48.750;9.314;2024-03-25T11:43:22;9.32;;;8.55;;
40675;SDS011;26359;48.750;9.314;2024-03-25T11:45:48;10.73;;;9.88;;
40675;SDS011;26359;48.750;9.314;2024-03-25T11:48:14;11.32;;;10.48;;
40675;SDS011;26359;48.750;9.314;2024-03-25T11:50:40;12.45;;;11.48;;
40675;SDS011;26359;48.750;9.314;2024-03-25T11:53:06;13.55;;;12.55;;
40675;SDS011;26359;48.750;9.314;2024-03-25T11:55:32;17.05;;;15.90;;
40675;SDS011;26359;48.750;9.314;2024-03-25T11:57:58;12.43;;;11.55;;
40675;SDS011;26359;48.750;9.314;2024-03-25T12:00:24;13.25;;;12.32;;
40675;SDS011;26359;48.750;9.314;2024-03-25T12:02:49;11.93;;;10.52;;
40675;SDS011;26359;48.750;9.314;2024-03-25T12:05:17;12.30;;;11.35;;
40675;SDS011;26359;48.750;9.314;2024-03-25T12:07:43;12.32;;;11.18;;
40675;SDS011;26359;48.750;9.314;2024-03-25T12:10:09;15.73;;;14.50;;
40675;SDS011;26359;48.750;9.314;2024-03-25T12:12:53;11.68;;;10.77;;
40675;SDS011;26359;48.750;9.314;2024-03-25T12:15:20;13.88;;;12.50;;
40675;SDS011;26359;48.750;9.314;2024-03-25T12:17:46;10.73;;;10.02;;
40675;SDS011;26359;48.750;9.314;2024-03-25T12:20:12;7.07;;;6.47;;
40675;SDS011;26359;48.750;9.314;2024-03-25T12:22:37;7.60;;;6.03;;
40675;SDS011;26359;48.750;9.314;2024-03-25T12:25:04;5.97;;;5.28;;
40675;SDS011;26359;48.750;9.314;2024-03-25T12:27:31;6.28;;;5.82;;
40675;SDS011;26359;48.750;9.314;2024-03-25T12:30:02;8.10;;;7.45;;
40675;SDS011;26359;48.750;9.314;2024-03-25T12:35:00;5.15;;;4.50;;
40675;SDS011;26359;48.750;9.314;2024-03-25T12:37:26;5.13;;;4.50;;
40675;SDS011;26359;48.750;9.314;2024-03-25T12:39:52;4.80;;;4.38;;
40675;SDS011;26359;48.750;9.314;2024-03-25T12:42:18;5.90;;;4.45;;
40675;SDS011;26359;48.750;9.314;2024-03-25T12:44:43;5.82;;;5.28;;
40675;SDS011;26359;48.750;9.314;2024-03-25T12:47:09;5.60;;;5.10;;
40675;SDS011;26359;48.750;9.314;2024-03-25T12:49:35;6.50;;;5.93;;
40675;SDS011;26359;48.750;9.314;2024-03-25T12:52:00;5.82;;;5.32;;
40675;SDS011;26359;48.750;9.314;2024-03-25T12:54:29;6.72;;;6.00;;
40675;SDS011;26359;48.750;9.314;2024-03-25T12:56:55;7.93;;;6.25;;
40675;SDS011;26359;48.750;9.314;2024-03-25T12:59:20;5.80;;;5.30;;
40675;SDS011;26359;48.750;9.314;2024-03-25T13:01:46;6.85;;;5.13;;
40675;SDS011;26359;48.750;9.314;2024-03-25T13:04:11;5.40;;;5.00;;
40675;SDS011;26359;48.750;9.314;2024-03-25T13:06:38;5.53;;;5.03;;
40675;SDS011;26359;48.750;9.314;2024-03-25T13:09:03;6.45;;;5.03;;
40675;SDS011;26359;48.750;9.314;2024-03-25T13:11:29;6.35;;;4.88;;
40675;SDS011;26359;48.750;9.314;2024-03-25T13:13:54;5.57;;;4.75;;
40675;SDS011;26359;48.750;9.314;2024-03-25T13:16:20;5.38;;;5.00;;
40675;SDS011;26359;48.750;9.314;2024-03-25T13:18:46;4.43;;;4.13;;
40675;SDS011;26359;48.750;9.314;2024-03-25T13:21:11;6.32;;;5.72;;
40675;SDS011;26359;48.750;9.314;2024-03-25T13:23:37;5.47;;;4.97;;
40675;SDS011;26359;48.750;9.314;2024-03-25T13:26:02;5.53;;;5.05;;
40675;SDS011;26359;48.750;9.314;2024-03-25T13:28:28;5.60;;;4.95;;
40675;SDS011;26359;48.750;9.314;2024-03-25T13:30:54;5.75;;;4.75;;
40675;SDS011;26359;48.750;9.314;2024-03-25T13:33:19;6.38;;;5.88;;
40675;SDS011;26359;48.750;9.314;2024-03-25T13:35:45;5.00;;;4.65;;
40675;SDS011;26359;48.750;9.314;2024-03-25T13:38:10;5.25;;;4.78;;
40675;SDS011;26359;48.750;9.314;2024-03-25T13:40:36;6.38;;;5.88;;
40675;SDS011;26359;48.750;9.314;2024-03-25T13:43:01;6.35;;;5.75;;
40675;SDS011;26359;48.750;9.314;2024-03-25T13:45:27;10.05;;;9.10;;
40675;SDS011;26359;48.750;9.314;2024-03-25T13:47:52;6.25;;;5.75;;
40675;SDS011;26359;48.750;9.314;2024-03-25T13:50:18;11.88;;;10.98;;
40675;SDS011;26359;48.750;9.314;2024-03-25T13:52:47;9.57;;;8.98;;
40675;SDS011;26359;48.750;9.314;2024-03-25T13:55:13;7.22;;;6.68;;
40675;SDS011;26359;48.750;9.314;2024-03-25T13:57:38;14.27;;;13.15;;
40675;SDS011;26359;48.750;9.314;2024-03-25T14:00:04;9.40;;;8.80;;
40675;SDS011;26359;48.750;9.314;2024-03-25T14:02:33;13.93;;;13.10;;
40675;SDS011;26359;48.750;9.314;2024-03-25T14:05:00;13.07;;;12.35;;
40675;SDS011;26359;48.750;9.314;2024-03-25T14:07:26;7.45;;;6.85;;
40675;SDS011;26359;48.750;9.314;2024-03-25T14:09:52;14.57;;;13.63;;
40675;SDS011;26359;48.750;9.314;2024-03-25T14:12:18;12.90;;;12.02;;
40675;SDS011;26359;48.750;9.314;2024-03-25T14:14:43;19.88;;;18.77;;
40675;SDS011;26359;48.750;9.314;2024-03-25T14:17:09;14.60;;;13.63;;
40675;SDS011;26359;48.750;9.314;2024-03-25T14:19:34;9.43;;;8.65;;
40675;SDS011;26359;48.750;9.314;2024-03-25T14:22:00;7.75;;;7.20;;
40675;SDS011;26359;48.750;9.314;2024-03-25T14:24:25;9.43;;;8.73;;
40675;SDS011;26359;48.750;9.314;2024-03-25T14:26:51;15.68;;;14.80;;
40675;SDS011;26359;48.750;9.314;2024-03-25T14:29:16;9.05;;;8.27;;
40675;SDS011;26359;48.750;9.314;2024-03-25T14:31:42;9.05;;;8.52;;
40675;SDS011;26359;48.750;9.314;2024-03-25T14:34:07;12.25;;;11.45;;
40675;SDS011;26359;48.750;9.314;2024-03-25T14:36:33;16.48;;;15.45;;
40675;SDS011;26359;48.750;9.314;2024-03-25T14:39:00;8.95;;;8.15;;
40675;SDS011;26359;48.750;9.314;2024-03-25T14:41:26;16.23;;;15.27;;
40675;SDS011;26359;48.750;9.314;2024-03-25T14:43:51;6.03;;;5.43;;
40675;SDS011;26359;48.750;9.314;2024-03-25T14:46:17;29.08;;;27.35;;
40675;SDS011;26359;48.750;9.314;2024-03-25T14:48:42;13.68;;;12.77;;
40675;SDS011;26359;48.750;9.314;2024-03-25T14:51:08;7.80;;;7.22;;